Time;durP1;ratioP1;P1;durP2;ratioP2;P2;SDS_P1;SDS_P2;PMS_P1;PMS_P2;Temp;Humidity;BMP_temperature;BMP_pressure;BME280_temperature;BME280_humidity;BME280_pressure;Samples;Min_cycle;Max_cycle;Signal;HPM_P1;HPM_P2
2022/10/14 00:02:03;;;;;;;1999.90;999.90;;;11.70;99.90;;;;;;5096864;27;20043;-65
2022/10/14 00:04:29;;;;;;;1999.90;999.90;;;11.70;99.90;;;;;;5090629;28;20046;-65
2022/10/14 00:06:55;;;;;;;1999.90;999.90;;;11.70;99.90;;;;;;5090090;28;20043;-65
2022/10/14 00:09:21;;;;;;;1999.90;999.90;;;11.70;99.90;;;;;;5090214;28;20043;-65
2022/10/14 00:11:47;;;;;;;1999.90;999.90;;;11.70;99.90;;;;;;5107889;28;20574;-65
2022/10/14 00:14:17;;;;;;;1999.90;999.90;;;11.70;99.90;;;;;;5113367;27;20372;-65
2022/10/14 00:16:45;;;;;;;1999.90;999.90;;;11.70;99.90;;;;;;5120278;27;20050;-65
2022/10/14 00:19:11;;;;;;;1999.90;999.90;;;11.70;99.90;;;;;;5113842;27;20168;-65
2022/10/14 00:21:39;;;;;;;1999.90;999.90;;;11.70;99.90;;;;;;5107857;27;20058;-65
2022/10/14 00:24:05;;;;;;;1999.90;999.90;;;11.70;99.90;;;;;;5090828;28;20047;-66
2022/10/14 00:26:34;;;;;;;1999.90;999.90;;;11.70;99.90;;;;;;5107993;28;20051;-65
2022/10/14 00:29:00;;;;;;;1999.90;999.90;;;11.70;99.90;;;;;;5089776;28;20040;-65
2022/10/14 00:31:27;;;;;;;1999.90;999.90;;;11.70;99.90;;;;;;5108300;28;20153;-65
2022/10/14 00:33:53;;;;;;;1999.90;999.90;;;11.70;99.90;;;;;;5078137;27;20374;-66
2022/10/14 00:36:20;;;;;;;1999.90;999.90;;;11.70;99.90;;;;;;5089021;28;20035;-66
2022/10/14 00:38:46;;;;;;;1999.90;999.90;;;11.70;99.90;;;;;;5107849;28;20048;-65
2022/10/14 00:41:19;;;;;;;1999.90;999.90;;;11.70;99.90;;;;;;5109023;27;20103;-65
2022/10/14 00:43:55;;;;;;;1999.90;999.90;;;11.70;99.90;;;;;;5114559;27;20528;-65
2022/10/14 00:46:22;;;;;;;1999.90;999.90;;;11.70;99.90;;;;;;5082879;27;20046;-65
2022/10/14 00:48:48;;;;;;;1999.90;999.90;;;11.70;99.90;;;;;;5114909;27;20047;-65
2022/10/14 00:51:14;;;;;;;1999.90;999.90;;;11.70;99.90;;;;;;5114999;27;20058;-66
2022/10/14 00:53:41;;;;;;;1999.90;999.90;;;11.60;99.90;;;;;;5081751;28;20122;-65
2022/10/14 00:56:09;;;;;;;1999.90;999.90;;;11.70;99.90;;;;;;5113832;27;20035;-65
2022/10/14 00:58:35;;;;;;;1999.90;999.90;;;11.60;99.90;;;;;;5100561;28;20107;-65
2022/10/14 01:01:01;;;;;;;1999.90;999.90;;;11.60;99.90;;;;;;5073076;28;20487;-65
2022/10/14 01:03:26;;;;;;;1999.90;999.90;;;11.60;99.90;;;;;;5102060;27;20077;-65
2022/10/14 01:06:19;;;;;;;1999.90;999.90;;;11.60;99.90;;;;;;5098029;28;20465;-65
2022/10/14 01:08:53;;;;;;;1999.90;999.90;;;11.50;99.90;;;;;;5098711;28;20047;-65
2022/10/14 01:11:33;;;;;;;1999.90;999.90;;;11.50;99.90;;;;;;5110922;28;20584;-65
2022/10/14 01:14:17;;;;;;;1999.90;999.90;;;11.50;99.90;;;;;;5069062;28;20122;-65
2022/10/14 01:17:05;;;;;;;1999.90;999.90;;;11.50;99.90;;;;;;5081825;28;20040;-65
2022/10/14 01:20:03;;;;;;;1999.90;999.90;;;11.40;99.90;;;;;;5094491;28;20047;-65
2022/10/14 01:22:49;;;;;;;1999.90;999.90;;;11.40;99.90;;;;;;5105671;28;20519;-65
2022/10/14 01:25:30;;;;;;;1999.90;999.90;;;11.40;99.90;;;;;;5086791;28;20044;-65
2022/10/14 01:28:09;;;;;;;1999.90;999.90;;;11.40;99.90;;;;;;5112473;28;20179;-66
2022/10/14 01:30:44;;;;;;;1999.90;999.90;;;11.30;99.90;;;;;;5078412;28;20035;-65
2022/10/14 01:33:19;;;;;;;1999.90;999.90;;;11.30;99.90;;;;;;5089714;28;20504;-65
2022/10/14 01:36:06;;;;;;;1999.90;999.90;;;11.30;99.90;;;;;;5109271;28;20062;-66
2022/10/14 01:38:42;;;;;;;1999.90;999.90;;;11.20;99.90;;;;;;5116709;27;20051;-65
2022/10/14 01:41:22;;;;;;;1999.90;999.90;;;11.20;99.90;;;;;;5111336;28;20040;-65
2022/10/14 01:43:50;;;;;;;1999.90;999.90;;;11.20;99.90;;;;;;5077428;28;20060;-65
2022/10/14 01:46:19;;;;;;;1999.90;999.90;;;11.20;99.90;;;;;;5077506;28;20068;-65
2022/10/14 01:48:52;;;;;;;1999.90;999.90;;;11.20;99.90;;;;;;5075102;28;20448;-65
2022/10/14 01:51:23;;;;;;;1999.90;999.90;;;11.20;99.90;;;;;;5093962;28;20096;-66
2022/10/14 01:54:07;;;;;;;1999.90;999.90;;;11.10;99.90;;;;;;5063983;28;20313;-65
2022/10/14 01:56:34;;;;;;;1999.90;999.90;;;11.10;99.90;;;;;;5079887;28;20089;-66
2022/10/14 01:59:01;;;;;;;1999.90;999.90;;;11.00;99.90;;;;;;5088832;28;20048;-66
2022/10/14 02:01:27;;;;;;;1999.90;999.90;;;11.10;99.90;;;;;;5096739;28;20055;-66
2022/10/14 02:03:53;;;;;;;1999.90;999.90;;;11.00;99.90;;;;;;5086113;28;20086;-65
2022/10/14 02:06:22;;;;;;;1999.90;999.90;;;11.00;99.90;;;;;;5105597;28;20035;-65
2022/10/14 02:08:54;;;;;;;1999.90;999.90;;;11.00;99.90;;;;;;5099160;28;20051;-65
2022/10/14 02:11:21;;;;;;;1999.90;999.90;;;10.90;99.90;;;;;;5085138;28;20097;-66
2022/10/14 02:14:31;;;;;;;1999.90;999.90;;;10.90;99.90;;;;;;5089586;28;20119;-65
2022/10/14 02:17:07;;;;;;;1999.90;999.90;;;10.90;99.90;;;;;;5083731;28;20445;-65
2022/10/14 02:19:49;;;;;;;1999.90;999.90;;;10.90;99.90;;;;;;5086306;28;20084;-65
2022/10/14 02:22:23;;;;;;;1999.90;999.90;;;10.90;99.90;;;;;;5072584;28;20462;-65
2022/10/14 02:24:55;;;;;;;1999.90;999.90;;;10.90;99.90;;;;;;5090029;28;20040;-65
2022/10/14 02:27:24;;;;;;;1999.90;999.90;;;10.80;99.90;;;;;;5087485;28;20062;-66
2022/10/14 02:29:51;;;;;;;1999.90;999.90;;;10.80;99.90;;;;;;5090622;28;20040;-65
2022/10/14 02:32:20;;;;;;;1999.90;999.90;;;10.90;99.90;;;;;;5087979;28;20078;-66
2022/10/14 02:34:50;;;;;;;1999.90;999.90;;;10.80;99.90;;;;;;5099962;28;20036;-66
2022/10/14 02:37:18;;;;;;;1999.90;999.90;;;10.80;99.90;;;;;;5106517;28;20043;-65
2022/10/14 02:39:50;;;;;;;1999.90;999.90;;;10.80;99.90;;;;;;5101558;28;20047;-65
2022/10/14 02:42:16;;;;;;;1999.90;999.90;;;10.80;99.90;;;;;;5089759;28;20048;-65
2022/10/14 02:44:57;;;;;;;1999.90;999.90;;;10.80;99.90;;;;;;5084284;28;20060;-65
2022/10/14 02:47:24;;;;;;;1999.90;999.90;;;10.70;99.90;;;;;;5091331;28;20056;-65
2022/10/14 02:49:50;;;;;;;1999.90;999.90;;;10.80;99.90;;;;;;5087459;28;20052;-65
2022/10/14 02:52:16;;;;;;;1999.90;999.90;;;10.70;99.90;;;;;;5090116;28;20036;-65
2022/10/14 02:54:41;;;;;;;1999.90;999.90;;;10.80;99.90;;;;;;5089561;28;20039;-65
2022/10/14 02:57:07;;;;;;;1999.90;999.90;;;10.80;99.90;;;;;;5085910;28;20086;-65
2022/10/14 02:59:32;;;;;;;1999.90;999.90;;;10.70;99.90;;;;;;5089129;28;20489;-65
2022/10/14 03:01:58;;;;;;;1999.90;999.90;;;10.80;99.90;;;;;;5065156;28;20094;-65
2022/10/14 03:04:23;;;;;;;1999.90;999.90;;;10.80;99.90;;;;;;5082300;28;20040;-65
2022/10/14 03:06:49;;;;;;;1999.90;999.90;;;10.80;99.90;;;;;;5087862;28;20413;-65
2022/10/14 03:09:14;;;;;;;1999.90;999.90;;;10.70;99.90;;;;;;5074789;28;20043;-65
2022/10/14 03:11:40;;;;;;;1999.90;999.90;;;10.70;99.90;;;;;;5099220;28;20118;-65
2022/10/14 03:14:06;;;;;;;1999.90;999.90;;;10.60;99.90;;;;;;5088261;28;20036;-65
2022/10/14 03:16:31;;;;;;;1999.90;999.90;;;10.60;99.90;;;;;;5087598;28;20052;-65
2022/10/14 03:18:57;;;;;;;1999.90;999.90;;;10.60;99.90;;;;;;5089018;28;20140;-65
2022/10/14 03:21:22;;;;;;;1999.90;999.90;;;10.60;99.90;;;;;;5090317;28;20047;-65
2022/10/14 03:23:49;;;;;;;1999.90;999.90;;;10.60;99.90;;;;;;5088559;28;20040;-66
2022/10/14 03:26:15;;;;;;;1999.90;999.90;;;10.60;99.90;;;;;;5087457;28;20044;-65
2022/10/14 03:28:40;;;;;;;1999.90;999.90;;;10.60;99.90;;;;;;5089406;28;20048;-65
2022/10/14 03:31:06;;;;;;;1999.90;999.90;;;10.60;99.90;;;;;;5081027;28;20036;-65
2022/10/14 03:33:32;;;;;;;1999.90;999.90;;;10.60;99.90;;;;;;5086097;28;20044;-65
2022/10/14 03:35:57;;;;;;;1999.90;999.90;;;10.60;99.90;;;;;;5095716;28;20098;-65
2022/10/14 03:38:23;;;;;;;1999.90;999.90;;;10.60;99.90;;;;;;5083898;28;20452;-65
2022/10/14 03:40:48;;;;;;;1999.90;999.90;;;10.60;99.90;;;;;;5071245;28;20048;-65
2022/10/14 03:43:14;;;;;;;1999.90;999.90;;;10.60;99.90;;;;;;5086446;28;20051;-65
2022/10/14 03:45:40;;;;;;;1999.90;999.90;;;10.50;99.90;;;;;;5091333;28;20055;-65
2022/10/14 03:48:05;;;;;;;1999.90;999.90;;;10.50;99.90;;;;;;5109811;27;20035;-65
2022/10/14 03:50:31;;;;;;;1999.90;999.90;;;10.50;99.90;;;;;;5129992;27;20027;-66
2022/10/14 03:52:56;;;;;;;1999.90;999.90;;;10.40;99.90;;;;;;5115085;27;20059;-66
2022/10/14 03:55:22;;;;;;;1999.90;999.90;;;10.40;99.90;;;;;;5108939;28;20039;-65
2022/10/14 03:57:48;;;;;;;1999.90;999.90;;;10.40;99.90;;;;;;5110176;27;20488;-66
2022/10/14 04:00:14;;;;;;;1999.90;999.90;;;10.40;99.90;;;;;;5085489;28;20040;-65
2022/10/14 04:02:41;;;;;;;1999.90;999.90;;;10.40;99.90;;;;;;5109497;28;20043;-65
2022/10/14 04:05:06;;;;;;;1999.90;999.90;;;10.40;99.90;;;;;;5089881;28;20051;-65
2022/10/14 04:07:32;;;;;;;1999.90;999.90;;;10.40;99.90;;;;;;5092563;28;20044;-65
2022/10/14 04:09:58;;;;;;;1999.90;999.90;;;10.30;99.90;;;;;;5121914;27;20039;-65
2022/10/14 04:12:23;;;;;;;1999.90;999.90;;;10.30;99.90;;;;;;5105521;28;20481;-65
2022/10/14 04:14:49;;;;;;;1999.90;999.90;;;10.30;99.90;;;;;;5086477;28;20118;-65
2022/10/14 04:17:14;;;;;;;1999.90;999.90;;;10.30;99.90;;;;;;5090234;28;20048;-65
2022/10/14 04:19:40;;;;;;;1999.90;999.90;;;10.30;99.90;;;;;;5090301;28;20138;-65
2022/10/14 04:22:05;;;;;;;1999.90;999.90;;;10.20;99.90;;;;;;5101340;27;20030;-65
2022/10/14 04:24:31;;;;;;;1999.90;999.90;;;10.20;99.90;;;;;;5112914;27;20066;-65
2022/10/14 04:26:57;;;;;;;1999.90;999.90;;;10.20;99.90;;;;;;5075313;28;20070;-65
2022/10/14 04:29:22;;;;;;;1999.90;999.90;;;10.20;99.90;;;;;;5108140;28;20142;-65
2022/10/14 04:31:48;;;;;;;1999.90;999.90;;;10.20;99.90;;;;;;5107843;28;20044;-65
2022/10/14 04:34:14;;;;;;;1999.90;999.90;;;10.20;99.90;;;;;;5086663;28;20503;-65
2022/10/14 04:36:39;;;;;;;1999.90;999.90;;;10.30;99.90;;;;;;5087985;28;20119;-65
2022/10/14 04:39:05;;;;;;;1999.90;999.90;;;10.30;99.90;;;;;;5069963;27;20093;-65
2022/10/14 04:41:30;;;;;;;1999.90;999.90;;;10.30;99.90;;;;;;5088296;28;21142;-65
2022/10/14 04:43:56;;;;;;;1999.90;999.90;;;10.20;99.90;;;;;;5107617;28;20059;-65
2022/10/14 04:46:21;;;;;;;1999.90;999.90;;;10.30;99.90;;;;;;5119511;27;20047;-65
2022/10/14 04:48:47;;;;;;;1999.90;999.90;;;10.20;99.90;;;;;;5103100;28;20044;-65
2022/10/14 04:51:13;;;;;;;1999.90;999.90;;;10.30;99.90;;;;;;5119818;27;20224;-65
2022/10/14 04:53:39;;;;;;;1999.90;999.90;;;10.30;99.90;;;;;;5112904;27;20078;-65
2022/10/14 04:56:05;;;;;;;1999.90;999.90;;;10.30;99.90;;;;;;5107363;28;20061;-65
2022/10/14 04:58:30;;;;;;;1999.90;999.90;;;10.30;99.90;;;;;;5072494;28;20051;-65
2022/10/14 05:00:56;;;;;;;1999.90;999.90;;;10.20;99.90;;;;;;5095849;28;20412;-65
2022/10/14 05:03:22;;;;;;;1999.90;999.90;;;10.20;99.90;;;;;;5108235;28;20092;-65
2022/10/14 05:05:49;;;;;;;1999.90;999.90;;;10.20;99.90;;;;;;5112157;27;20050;-65
2022/10/14 05:08:15;;;;;;;1999.90;999.90;;;10.10;99.90;;;;;;5107359;28;20104;-65
2022/10/14 05:10:40;;;;;;;1999.90;999.90;;;10.10;99.90;;;;;;5088956;28;20044;-65
2022/10/14 05:13:06;;;;;;;1999.90;999.90;;;10.10;99.90;;;;;;5128832;27;20039;-66
2022/10/14 05:15:32;;;;;;;1999.90;999.90;;;10.10;99.90;;;;;;5092028;28;20097;-66
2022/10/14 05:17:57;;;;;;;1999.90;999.90;;;10.10;99.90;;;;;;5121913;28;20047;-65
2022/10/14 05:20:23;;;;;;;1999.90;999.90;;;10.20;99.90;;;;;;5118153;28;20039;-65
2022/10/14 05:22:49;;;;;;;1999.90;999.90;;;10.10;99.90;;;;;;5116045;28;20031;-65
2022/10/14 05:25:15;;;;;;;1999.90;999.90;;;10.10;99.90;;;;;;5094799;28;20039;-65
2022/10/14 05:27:40;;;;;;;1999.90;999.90;;;10.10;99.90;;;;;;5108709;28;20048;-66
2022/10/14 05:30:07;;;;;;;1999.90;999.90;;;10.10;99.90;;;;;;5118928;28;20212;-65
2022/10/14 05:32:32;;;;;;;1999.90;999.90;;;10.10;99.90;;;;;;5107564;28;20420;-65
2022/10/14 05:34:58;;;;;;;1999.90;999.90;;;10.10;99.90;;;;;;5085591;28;20039;-65
2022/10/14 05:37:23;;;;;;;1999.90;999.90;;;10.10;99.90;;;;;;5118569;28;20502;-65
2022/10/14 05:39:49;;;;;;;1999.90;999.90;;;10.10;99.90;;;;;;5095071;28;20047;-65
2022/10/14 05:42:14;;;;;;;1999.90;999.90;;;10.10;99.90;;;;;;5112374;28;20039;-66
2022/10/14 05:44:40;;;;;;;1999.90;999.90;;;10.10;99.90;;;;;;5122322;28;20411;-65
2022/10/14 05:47:06;;;;;;;1999.90;999.90;;;10.10;99.90;;;;;;5107949;28;20599;-65
2022/10/14 05:49:31;;;;;;;1999.90;999.90;;;10.20;99.90;;;;;;5103765;28;20042;-65
2022/10/14 05:51:57;;;;;;;1999.90;999.90;;;10.20;99.90;;;;;;5079979;28;20084;-65
2022/10/14 05:54:22;;;;;;;1999.90;999.90;;;10.20;99.90;;;;;;5087007;28;20046;-65
2022/10/14 05:56:48;;;;;;;1999.90;999.90;;;10.20;99.90;;;;;;5106992;28;20099;-65
2022/10/14 05:59:13;;;;;;;1999.90;999.90;;;10.20;99.90;;;;;;5087660;28;20039;-65
2022/10/14 06:01:40;;;;;;;1999.90;999.90;;;10.20;99.90;;;;;;5071688;28;20519;-65
2022/10/14 06:04:05;;;;;;;1999.90;999.90;;;10.30;99.90;;;;;;5091801;28;20051;-65
2022/10/14 06:06:31;;;;;;;1999.90;999.90;;;10.30;99.90;;;;;;5121063;27;20066;-65
2022/10/14 06:08:57;;;;;;;1999.90;999.90;;;10.30;99.90;;;;;;5113581;27;20120;-65
2022/10/14 06:11:22;;;;;;;1999.90;999.90;;;10.30;99.90;;;;;;5089571;28;20051;-65
2022/10/14 06:13:48;;;;;;;1999.90;999.90;;;10.30;99.90;;;;;;5108358;27;20047;-65
2022/10/14 06:16:14;;;;;;;1999.90;999.90;;;10.30;99.90;;;;;;5111400;28;20476;-65
2022/10/14 06:18:40;;;;;;;1999.90;999.90;;;10.30;99.90;;;;;;5100828;28;20075;-65
2022/10/14 06:21:06;;;;;;;1999.90;999.90;;;10.30;99.90;;;;;;5093046;28;20100;-65
2022/10/14 06:23:32;;;;;;;1999.90;999.90;;;10.40;99.90;;;;;;5101595;28;20051;-65
2022/10/14 06:25:58;;;;;;;1999.90;999.90;;;10.40;99.90;;;;;;5094359;28;20036;-65
2022/10/14 06:28:24;;;;;;;1999.90;999.90;;;10.40;99.90;;;;;;5091717;28;20047;-65
2022/10/14 06:30:53;;;;;;;1999.90;999.90;;;10.40;99.90;;;;;;5075592;28;20043;-65
2022/10/14 06:33:19;;;;;;;1999.90;999.90;;;10.40;99.90;;;;;;5102171;28;20503;-65
2022/10/14 06:35:45;;;;;;;1999.90;999.90;;;10.50;99.90;;;;;;5066472;28;20044;-65
2022/10/14 06:38:11;;;;;;;1999.90;999.90;;;10.50;99.90;;;;;;5079569;28;20085;-65
2022/10/14 06:40:37;;;;;;;1999.90;999.90;;;10.50;99.90;;;;;;5103467;28;20127;-65
2022/10/14 06:43:03;;;;;;;1999.90;999.90;;;10.50;99.90;;;;;;5105209;28;20441;-65
2022/10/14 06:45:28;;;;;;;1999.90;999.90;;;10.60;99.90;;;;;;5082604;28;20085;-65
2022/10/14 06:47:55;;;;;;;1999.90;999.90;;;10.60;99.90;;;;;;5110749;28;20043;-65
2022/10/14 06:50:20;;;;;;;1999.90;999.90;;;10.60;99.90;;;;;;5109559;28;20457;-65
2022/10/14 06:52:46;;;;;;;1999.90;999.90;;;10.70;99.90;;;;;;5110927;28;20035;-65
2022/10/14 06:55:13;;;;;;;1999.90;999.90;;;10.70;99.90;;;;;;5110338;28;20043;-65
2022/10/14 06:57:39;;;;;;;1999.90;999.90;;;10.70;99.90;;;;;;5099226;28;20040;-65
2022/10/14 07:00:05;;;;;;;1999.90;999.90;;;10.80;99.90;;;;;;5110679;27;20439;-66
2022/10/14 07:02:30;;;;;;;1999.90;999.90;;;10.80;99.90;;;;;;5124217;27;20111;-65
2022/10/14 07:04:56;;;;;;;1999.90;999.90;;;10.80;99.90;;;;;;5092743;28;20146;-65
2022/10/14 07:07:21;;;;;;;1999.90;999.90;;;10.80;99.90;;;;;;5096829;27;20035;-66
2022/10/14 07:09:47;;;;;;;1999.90;999.90;;;10.90;99.90;;;;;;5079172;28;20040;-65
2022/10/14 07:12:13;;;;;;;1999.90;999.90;;;10.90;99.90;;;;;;5100897;28;20050;-65
2022/10/14 07:14:38;;;;;;;1999.90;999.90;;;10.90;99.90;;;;;;5109116;28;20469;-66
2022/10/14 07:17:07;;;;;;;1999.90;999.90;;;11.00;99.90;;;;;;5087680;28;20484;-66
2022/10/14 07:19:32;;;;;;;1999.90;999.90;;;11.00;99.90;;;;;;5111414;27;20043;-65
2022/10/14 07:21:58;;;;;;;1999.90;999.90;;;11.20;99.90;;;;;;5110031;28;20054;-66
2022/10/14 07:24:24;;;;;;;1999.90;999.90;;;11.20;99.90;;;;;;5074724;28;20039;-65
2022/10/14 07:26:50;;;;;;;1999.90;999.90;;;11.20;99.90;;;;;;5110067;28;20529;-65
2022/10/14 07:29:15;;;;;;;1999.90;999.90;;;11.20;99.90;;;;;;5114101;27;20035;-65
2022/10/14 07:31:41;;;;;;;1999.90;999.90;;;11.30;99.90;;;;;;5120288;27;20480;-66
2022/10/14 07:34:07;;;;;;;1999.90;999.90;;;11.30;99.90;;;;;;5093345;28;20039;-66
2022/10/14 07:36:32;;;;;;;1999.90;999.90;;;11.30;99.90;;;;;;5108690;27;20055;-65
2022/10/14 07:38:58;;;;;;;1999.90;999.90;;;11.30;99.90;;;;;;5115711;27;20039;-65
2022/10/14 07:41:24;;;;;;;1999.90;999.90;;;11.30;99.90;;;;;;5071973;28;20048;-65
2022/10/14 07:43:53;;;;;;;1999.90;999.90;;;11.30;99.90;;;;;;5088452;28;20067;-66
2022/10/14 07:46:28;;;;;;;1999.90;999.90;;;11.30;99.90;;;;;;5095700;28;20054;-66
2022/10/14 07:49:09;;;;;;;1999.90;999.90;;;11.40;99.90;;;;;;5088197;28;20051;-65
2022/10/14 07:51:36;;;;;;;1999.90;999.90;;;11.40;99.90;;;;;;5088646;27;20050;-65
2022/10/14 07:54:04;;;;;;;1999.90;999.90;;;11.40;99.90;;;;;;5108195;27;20036;-65
2022/10/14 07:56:29;;;;;;;1999.90;999.90;;;11.50;99.90;;;;;;5089255;28;20042;-65
2022/10/14 07:58:56;;;;;;;1999.90;999.90;;;11.50;99.90;;;;;;5089545;28;20460;-65
2022/10/14 08:01:23;;;;;;;1999.90;999.90;;;11.60;99.90;;;;;;5108899;28;20112;-65
2022/10/14 08:03:48;;;;;;;1999.90;999.90;;;11.60;99.90;;;;;;5089695;28;20168;-65
2022/10/14 08:06:14;;;;;;;1999.90;999.90;;;11.60;99.90;;;;;;5095814;27;20166;-65
2022/10/14 08:08:41;;;;;;;1999.90;999.90;;;11.70;99.90;;;;;;5089276;28;20114;-65
2022/10/14 08:11:13;;;;;;;1999.90;999.90;;;11.70;99.90;;;;;;5077108;28;20036;-66
2022/10/14 08:13:39;;;;;;;1999.90;999.90;;;11.70;99.90;;;;;;5106772;27;20039;-65
2022/10/14 08:16:18;;;;;;;1999.90;999.90;;;11.70;99.90;;;;;;5109710;28;20039;-65
2022/10/14 08:18:45;;;;;;;1999.90;999.90;;;11.70;99.90;;;;;;5081946;28;20092;-66
2022/10/14 08:21:11;;;;;;;1999.90;999.90;;;11.80;99.90;;;;;;5109104;28;20384;-66
2022/10/14 08:23:37;;;;;;;1999.90;999.90;;;11.90;99.90;;;;;;5112610;27;20046;-66
2022/10/14 08:26:03;;;;;;;1999.90;999.90;;;11.90;99.90;;;;;;5104356;28;20428;-65
2022/10/14 08:28:28;;;;;;;1999.90;999.90;;;11.90;99.90;;;;;;5107695;28;20414;-65
2022/10/14 08:30:54;;;;;;;1999.90;999.90;;;12.00;99.90;;;;;;5112777;27;20040;-66
2022/10/14 08:33:20;;;;;;;1999.90;999.90;;;12.00;99.90;;;;;;5070160;28;20554;-66
2022/10/14 08:35:45;;;;;;;1999.90;999.90;;;12.00;99.90;;;;;;5102867;28;20567;-65
2022/10/14 08:38:11;;;;;;;1999.90;999.90;;;12.00;99.90;;;;;;5092747;28;20086;-65
2022/10/14 08:41:15;;;;;;;1999.90;999.90;;;12.10;99.90;;;;;;5108324;27;20039;-66
2022/10/14 08:44:01;;;;;;;1999.90;999.90;;;12.10;99.90;;;;;;5066895;28;20500;-66
2022/10/14 08:46:52;;;;;;;1999.90;999.90;;;12.10;99.90;;;;;;5108356;28;20143;-65
2022/10/14 08:49:36;;;;;;;1999.90;999.90;;;12.20;99.90;;;;;;5084366;28;20531;-66
2022/10/14 08:52:14;;;;;;;1999.90;999.90;;;12.30;99.90;;;;;;5101833;27;20082;-66
2022/10/14 08:54:44;;;;;;;1999.90;999.90;;;12.40;99.90;;;;;;5107717;28;20531;-66
2022/10/14 08:57:19;;;;;;;1999.90;999.90;;;12.40;99.90;;;;;;5090176;28;20046;-66
2022/10/14 08:59:45;;;;;;;1999.90;999.90;;;12.50;99.90;;;;;;5108685;28;20039;-65
2022/10/14 09:02:28;;;;;;;1999.90;999.90;;;12.50;99.90;;;;;;5086741;28;20397;-65
2022/10/14 09:04:55;;;;;;;1999.90;999.90;;;12.50;99.90;;;;;;5095093;28;20043;-65
2022/10/14 09:07:21;;;;;;;1999.90;999.90;;;12.50;99.90;;;;;;5106778;28;20091;-65
2022/10/14 09:09:51;;;;;;;1999.90;999.90;;;12.50;99.90;;;;;;5079147;28;20040;-65
2022/10/14 09:12:24;;;;;;;1999.90;999.90;;;12.50;99.90;;;;;;5105552;28;20446;-65
2022/10/14 09:15:16;;;;;;;1999.90;999.90;;;12.50;99.90;;;;;;5094586;28;20047;-66
2022/10/14 09:17:55;;;;;;;1999.90;999.90;;;12.50;99.90;;;;;;5088701;28;20469;-65
2022/10/14 09:20:23;;;;;;;1999.90;999.90;;;12.60;99.90;;;;;;5108022;28;20436;-66
2022/10/14 09:23:19;;;;;;;1999.90;999.90;;;12.60;99.90;;;;;;5108167;28;20489;-66
2022/10/14 09:26:06;;;;;;;1999.90;999.90;;;12.70;99.90;;;;;;5085860;28;20044;-66
2022/10/14 09:28:40;;;;;;;1999.90;999.90;;;12.80;99.90;;;;;;5111943;28;20054;-66
2022/10/14 09:31:09;;;;;;;1999.90;999.90;;;12.80;99.90;;;;;;5088986;28;20040;-66
2022/10/14 09:33:38;;;;;;;1999.90;999.90;;;12.90;99.90;;;;;;5096925;28;20043;-65
2022/10/14 09:36:06;;;;;;;1999.90;999.90;;;12.90;99.90;;;;;;5097288;28;20489;-65
2022/10/14 09:38:31;;;;;;;1999.90;999.90;;;13.00;99.90;;;;;;5072515;27;20104;-66
2022/10/14 09:40:58;;;;;;;1999.90;999.90;;;13.00;99.90;;;;;;5086744;28;20086;-66
2022/10/14 09:43:24;;;;;;;1999.90;999.90;;;13.10;99.90;;;;;;5090429;28;20064;-66
2022/10/14 09:46:10;;;;;;;1999.90;999.90;;;13.20;99.90;;;;;;5111722;28;20059;-65
2022/10/14 09:48:43;;;;;;;1999.90;999.90;;;13.20;99.90;;;;;;5087038;28;20580;-66
2022/10/14 09:51:22;;;;;;;1999.90;999.90;;;13.30;99.90;;;;;;5111843;28;20047;-66
2022/10/14 09:53:54;;;;;;;1999.90;999.90;;;13.30;99.90;;;;;;5086319;28;20083;-66
2022/10/14 09:56:32;;;;;;;1999.90;999.90;;;13.30;99.90;;;;;;5110577;27;20092;-65
2022/10/14 09:58:58;;;;;;;1999.90;999.90;;;13.20;99.90;;;;;;5111894;28;20127;-65
2022/10/14 10:01:36;;;;;;;1999.90;999.90;;;13.20;99.90;;;;;;5111590;28;20051;-65
2022/10/14 10:04:30;;;;;;;1999.90;999.90;;;13.10;99.90;;;;;;5119462;27;20039;-65
2022/10/14 10:06:56;;;;;;;1999.90;999.90;;;13.00;99.90;;;;;;5094941;27;20031;-65
2022/10/14 10:09:22;;;;;;;1999.90;999.90;;;13.00;99.90;;;;;;5098062;28;20048;-65
2022/10/14 10:11:47;;;;;;;1999.90;999.90;;;13.10;99.90;;;;;;5098660;28;20375;-65
2022/10/14 10:14:20;;;;;;;1999.90;999.90;;;13.10;99.90;;;;;;5111116;28;20039;-65
2022/10/14 10:16:46;;;;;;;1999.90;999.90;;;13.20;99.90;;;;;;5085548;28;20150;-65
2022/10/14 10:19:34;;;;;;;1999.90;999.90;;;13.20;99.90;;;;;;5079406;28;20032;-66
2022/10/14 10:22:18;;;;;;;1999.90;999.90;;;13.30;99.90;;;;;;5116844;27;20090;-65
2022/10/14 10:25:11;;;;;;;1999.90;999.90;;;13.30;99.90;;;;;;5072155;28;20047;-65
2022/10/14 10:27:41;;;;;;;1999.90;999.90;;;13.30;99.90;;;;;;5113183;27;20057;-65
2022/10/14 10:30:13;;;;;;;1999.90;999.90;;;13.40;99.90;;;;;;5096128;27;20085;-65
2022/10/14 10:33:00;;;;;;;1999.90;999.90;;;13.40;99.90;;;;;;5091754;28;20048;-65
2022/10/14 10:35:54;;;;;;;1999.90;999.90;;;13.40;99.90;;;;;;5103769;27;20027;-65
2022/10/14 10:38:30;;;;;;;1999.90;999.90;;;13.50;99.90;;;;;;5105085;27;20042;-65
2022/10/14 10:41:14;;;;;;;1999.90;999.90;;;13.50;99.90;;;;;;5102556;27;20082;-65
2022/10/14 10:44:13;;;;;;;1999.90;999.90;;;13.50;99.90;;;;;;5088843;28;20157;-65
2022/10/14 10:46:50;;;;;;;1999.90;999.90;;;13.50;99.90;;;;;;5109609;28;20078;-65
2022/10/14 10:49:24;;;;;;;1999.90;999.90;;;13.60;99.90;;;;;;5100334;28;20138;-65
2022/10/14 10:52:29;;;;;;;1999.90;999.90;;;13.60;99.90;;;;;;5108816;27;20043;-65
2022/10/14 10:55:23;;;;;;;1999.90;999.90;;;13.60;99.90;;;;;;5089008;27;20059;-65
2022/10/14 10:58:03;;;;;;;1999.90;999.90;;;13.50;99.90;;;;;;5108121;27;20079;-66
2022/10/14 11:00:36;;;;;;;1999.90;999.90;;;13.50;99.90;;;;;;5118531;27;20443;-65
2022/10/14 11:03:23;;;;;;;1999.90;999.90;;;13.50;99.90;;;;;;5091341;27;20051;-65
2022/10/14 11:06:05;;;;;;;1999.90;999.90;;;13.50;99.90;;;;;;5083434;27;20405;-65
2022/10/14 11:12:09;;;;;;;1999.90;999.90;;;13.60;99.90;;;;;;5123994;27;20047;-65
2022/10/14 11:14:49;;;;;;;;;;;13.80;99.90;;;;;;5072259;28;20052;-65
2022/10/14 11:17:21;;;;;;;1999.90;999.90;;;13.80;99.90;;;;;;5116465;27;19923;-65
2022/10/14 11:19:57;;;;;;;1999.90;999.90;;;13.90;99.90;;;;;;5097449;28;20438;-65
2022/10/14 11:23:03;;;;;;;1999.90;999.90;;;13.90;99.90;;;;;;5100420;27;20374;-66
2022/10/14 11:25:40;;;;;;;1999.90;999.90;;;14.00;99.90;;;;;;5084014;28;20516;-65
2022/10/14 11:28:38;;;;;;;1999.90;999.90;;;14.10;99.90;;;;;;5082412;28;20043;-66
2022/10/14 11:31:25;;;;;;;1999.90;999.90;;;14.20;99.90;;;;;;5090385;28;20039;-66
2022/10/14 11:34:07;;;;;;;1999.90;999.90;;;14.30;99.90;;;;;;5082853;28;20430;-66
2022/10/14 11:36:54;;;;;;;1999.90;999.90;;;14.40;99.90;;;;;;5100373;27;20134;-66
2022/10/14 11:39:25;;;;;;;1999.90;999.90;;;14.30;99.90;;;;;;5089631;28;20081;-66
2022/10/14 11:42:10;;;;;;;1999.90;999.90;;;14.40;99.90;;;;;;5076425;27;20055;-66
2022/10/14 11:44:37;;;;;;;1999.90;999.90;;;14.30;99.90;;;;;;5104798;27;20507;-66
2022/10/14 11:47:14;;;;;;;1999.90;999.90;;;14.20;99.90;;;;;;5109342;27;20369;-66
2022/10/14 11:49:54;;;;;;;1999.90;999.90;;;14.20;99.90;;;;;;5103565;27;20036;-66
2022/10/14 11:52:34;;;;;;;1999.90;999.90;;;14.10;99.90;;;;;;5084911;27;20051;-66
2022/10/14 11:55:16;;;;;;;1999.90;999.90;;;14.10;99.90;;;;;;5107357;27;20036;-66
2022/10/14 11:57:52;;;;;;;1999.90;999.90;;;14.10;99.90;;;;;;5109421;27;20048;-66
2022/10/14 12:03:18;;;;;;;1999.90;999.90;;;14.10;99.90;;;;;;5113504;27;20385;-66
2022/10/14 12:05:55;;;;;;;1999.90;999.90;;;14.10;99.90;;;;;;5115607;27;20043;-66
2022/10/14 12:08:26;;;;;;;1999.90;999.90;;;14.10;99.90;;;;;;5096023;27;20461;-66
2022/10/14 12:11:16;;;;;;;1999.90;999.90;;;14.20;99.90;;;;;;5093306;27;20454;-66
2022/10/14 12:13:51;;;;;;;1999.90;999.90;;;14.20;99.90;;;;;;5125786;27;20039;-66
2022/10/14 12:16:18;;;;;;;1999.90;999.90;;;14.20;99.90;;;;;;5095203;27;20122;-66
2022/10/14 12:18:48;;;;;;;1999.90;999.90;;;14.20;99.90;;;;;;5095590;27;20051;-66
2022/10/14 12:21:20;;;;;;;1999.90;999.90;;;14.20;99.90;;;;;;5110823;27;20089;-66
2022/10/14 12:23:57;;;;;;;1999.90;999.90;;;14.30;99.90;;;;;;5106588;27;20397;-66